createdAt,value
2023-05-22T00:01:42.861Z,4.03
2023-05-22T00:04:10.692Z,4.28
2023-05-22T00:06:38.005Z,4.30
2023-05-22T00:09:04.851Z,4.50
2023-05-22T00:11:31.689Z,4.38
2023-05-22T00:13:58.393Z,3.63
2023-05-22T00:16:25.156Z,4.03
2023-05-22T00:18:51.961Z,3.80
2023-05-22T00:21:19.927Z,4.30
2023-05-22T00:23:46.576Z,4.10
2023-05-22T00:26:16.611Z,4.32
2023-05-22T00:28:43.580Z,3.75
2023-05-22T00:31:10.248Z,3.75
2023-05-22T00:33:36.956Z,4.15
2023-05-22T00:36:03.874Z,3.83
2023-05-22T00:38:32.865Z,4.00
2023-05-22T00:41:03.508Z,4.32
2023-05-22T00:43:30.379Z,4.18
2023-05-22T00:45:57.302Z,4.70
2023-05-22T00:48:24.396Z,4.18
2023-05-22T00:50:51.541Z,4.00
2023-05-22T00:53:21.930Z,4.13
2023-05-22T00:55:48.640Z,4.00
2023-05-22T00:58:17.168Z,3.35
2023-05-22T01:00:43.879Z,3.83
2023-05-22T01:03:11.084Z,4.07
2023-05-22T01:05:38.020Z,4.18
2023-05-22T01:08:05.130Z,3.88
2023-05-22T01:10:32.245Z,3.97
2023-05-22T01:13:10.513Z,4.18
2023-05-22T01:16:22.511Z,8.32
2023-05-22T01:19:10.628Z,4.63
2023-05-22T01:22:13.737Z,5.28
2023-05-22T01:24:52.142Z,5.18
2023-05-22T01:27:28.556Z,5.43
2023-05-22T01:30:04.288Z,4.20
2023-05-22T01:32:30.999Z,4.40
2023-05-22T01:34:59.528Z,10.75
2023-05-22T01:37:26.260Z,7.22
2023-05-22T01:39:52.879Z,6.05
2023-05-22T01:42:19.688Z,5.25
2023-05-22T01:44:48.087Z,6.50
2023-05-22T01:47:15.123Z,6.20
2023-05-22T01:49:42.173Z,6.50
2023-05-22T01:52:14.991Z,5.90
2023-05-22T01:55:17.541Z,6.35
2023-05-22T01:58:09.828Z,7.18
2023-05-22T02:00:37.662Z,7.30
2023-05-22T02:03:08.955Z,6.45
2023-05-22T02:05:36.086Z,5.35
2023-05-22T02:08:02.807Z,5.75
2023-05-22T02:10:29.551Z,4.95
2023-05-22T02:12:56.434Z,4.60
2023-05-22T02:15:23.159Z,4.70
2023-05-22T02:17:49.953Z,4.63
2023-05-22T02:20:16.737Z,4.50
2023-05-22T02:22:44.575Z,5.38
2023-05-22T02:25:14.941Z,5.43
2023-05-22T02:27:42.888Z,5.15
2023-05-22T02:30:10.873Z,4.70
2023-05-22T02:32:38.478Z,4.28
2023-05-22T02:35:05.550Z,4.43
2023-05-22T02:37:32.318Z,3.83
2023-05-22T02:39:59.016Z,4.38
2023-05-22T02:42:25.872Z,4.10
2023-05-22T02:44:52.674Z,4.55
2023-05-22T02:47:19.377Z,4.90
2023-05-22T02:49:46.598Z,5.60
2023-05-22T02:52:13.318Z,5.15
2023-05-22T02:54:40.007Z,5.97
2023-05-22T02:57:06.753Z,4.95
2023-05-22T02:59:33.517Z,5.10
2023-05-22T03:02:00.228Z,3.88
2023-05-22T03:04:27.596Z,3.97
2023-05-22T03:06:54.829Z,4.10
2023-05-22T03:09:21.635Z,3.80
2023-05-22T03:11:48.390Z,4.50
2023-05-22T03:14:15.147Z,4.28
2023-05-22T03:16:41.897Z,4.55
2023-05-22T03:19:12.342Z,3.88
2023-05-22T03:21:39.292Z,3.97
2023-05-22T03:24:06.313Z,4.32
2023-05-22T03:26:33.334Z,4.93
2023-05-22T03:29:00.225Z,4.35
2023-05-22T03:31:28.268Z,4.28
2023-05-22T03:33:54.981Z,3.90
2023-05-22T03:36:21.902Z,6.20
2023-05-22T03:38:48.661Z,5.55
2023-05-22T03:41:15.663Z,5.70
2023-05-22T03:43:44.745Z,5.93
2023-05-22T03:46:11.812Z,5.10
2023-05-22T03:48:38.693Z,4.85
2023-05-22T03:51:05.880Z,4.85
2023-05-22T03:53:32.582Z,5.68
2023-05-22T03:55:59.425Z,6.22
2023-05-22T03:58:26.262Z,16.48
2023-05-22T04:00:54.528Z,12.50
2023-05-22T04:03:21.446Z,9.13
2023-05-22T04:05:48.166Z,6.05
2023-05-22T04:08:14.897Z,9.00
2023-05-22T04:10:42.495Z,6.25
2023-05-22T04:13:09.194Z,8.38
2023-05-22T04:15:36.607Z,8.75
2023-05-22T04:18:03.347Z,7.75
2023-05-22T04:20:30.083Z,8.50
2023-05-22T04:22:57.576Z,9.80
2023-05-22T04:25:24.278Z,7.65
2023-05-22T04:27:50.988Z,7.25
2023-05-22T04:30:18.498Z,5.53
2023-05-22T04:32:45.521Z,5.75
2023-05-22T04:35:12.404Z,5.20
2023-05-22T04:37:41.120Z,5.28
2023-05-22T04:40:11.438Z,5.32
2023-05-22T04:42:38.809Z,5.25
2023-05-22T04:45:06.154Z,5.45
2023-05-22T04:47:32.882Z,4.70
2023-05-22T04:50:00.250Z,5.00
2023-05-22T04:52:27.184Z,5.30
2023-05-22T04:54:54.551Z,4.40
2023-05-22T04:57:21.941Z,4.70
2023-05-22T04:59:48.764Z,4.60
2023-05-22T05:02:15.610Z,4.45
2023-05-22T05:04:43.510Z,5.18
2023-05-22T05:07:10.254Z,3.97
2023-05-22T05:09:37.090Z,4.45
2023-05-22T05:12:04.694Z,4.57
2023-05-22T05:14:31.444Z,4.20
2023-05-22T05:16:58.875Z,3.53
2023-05-22T05:19:26.258Z,4.15
2023-05-22T05:21:53.006Z,3.90
2023-05-22T05:24:19.807Z,4.47
2023-05-22T05:26:46.456Z,4.07
2023-05-22T05:29:13.144Z,4.05
2023-05-22T05:31:39.911Z,3.67
2023-05-22T05:34:06.605Z,3.33
2023-05-22T05:36:33.330Z,3.08
2023-05-22T05:39:00.593Z,3.83
2023-05-22T05:41:27.605Z,3.15
2023-05-22T05:43:57.469Z,3.60
2023-05-22T05:46:24.452Z,3.25
2023-05-22T05:48:51.231Z,3.55
2023-05-22T05:51:17.960Z,2.90
2023-05-22T05:53:44.618Z,3.35
2023-05-22T05:56:11.829Z,4.00
2023-05-22T05:58:38.609Z,3.65
2023-05-22T06:01:05.335Z,3.35
2023-05-22T06:03:32.737Z,2.63
2023-05-22T06:05:59.484Z,2.92
2023-05-22T06:08:26.258Z,3.03
2023-05-22T06:10:53.001Z,3.03
2023-05-22T06:13:19.708Z,3.15
2023-05-22T06:15:46.504Z,2.75
2023-05-22T06:18:13.738Z,2.92
2023-05-22T06:20:40.776Z,2.78
2023-05-22T06:23:07.732Z,2.88
2023-05-22T06:25:34.612Z,2.50
2023-05-22T06:28:01.454Z,2.97
2023-05-22T06:30:39.514Z,2.28
2023-05-22T06:33:07.946Z,3.05
2023-05-22T06:35:34.836Z,2.95
2023-05-22T06:38:02.042Z,2.33
2023-05-22T06:40:28.890Z,2.67
2023-05-22T06:42:57.492Z,2.38
2023-05-22T06:45:24.263Z,2.30
2023-05-22T06:47:54.236Z,2.22
2023-05-22T06:50:22.292Z,2.67
2023-05-22T06:52:49.400Z,2.35
2023-05-22T06:55:17.090Z,2.45
2023-05-22T06:57:43.765Z,1.90
2023-05-22T07:00:12.902Z,1.80
2023-05-22T07:02:40.322Z,1.58
2023-05-22T07:05:07.401Z,2.03
2023-05-22T07:07:34.691Z,1.80
2023-05-22T07:10:01.379Z,2.13
2023-05-22T07:12:29.652Z,2.30
2023-05-22T07:14:57.886Z,2.22
2023-05-22T07:17:24.719Z,2.10
2023-05-22T07:19:51.537Z,2.03
2023-05-22T07:22:18.301Z,1.95
2023-05-22T07:24:45.425Z,2.35
2023-05-22T07:27:12.401Z,2.58
2023-05-22T07:29:39.152Z,1.60
2023-05-22T07:32:06.496Z,2.00
2023-05-22T07:34:34.380Z,2.13
2023-05-22T07:37:06.210Z,1.92
2023-05-22T07:39:32.909Z,1.83
2023-05-22T07:44:46.197Z,1.90
2023-05-22T07:47:12.938Z,1.85
2023-05-22T07:49:39.721Z,2.35
2023-05-22T07:52:07.041Z,1.85
2023-05-22T07:54:33.785Z,1.83
2023-05-22T07:57:03.483Z,1.67
2023-05-22T07:59:30.238Z,1.83
2023-05-22T08:01:58.386Z,2.10
2023-05-22T08:04:26.250Z,1.80
2023-05-22T08:06:53.249Z,1.92
2023-05-22T08:09:21.656Z,1.83
2023-05-22T08:11:48.379Z,2.00
2023-05-22T08:14:15.085Z,2.00
2023-05-22T08:16:41.911Z,1.63
2023-05-22T08:19:09.052Z,2.00
2023-05-22T08:21:37.527Z,1.60
2023-05-22T08:24:04.467Z,2.00
2023-05-22T08:26:33.310Z,2.10
2023-05-22T08:29:00.718Z,2.33
2023-05-22T08:31:29.427Z,1.92
2023-05-22T08:34:02.639Z,1.95
2023-05-22T08:36:34.129Z,2.00
2023-05-22T08:39:01.576Z,2.58
2023-05-22T08:41:28.694Z,2.10
2023-05-22T08:43:55.531Z,1.73
2023-05-22T08:46:26.488Z,1.92
2023-05-22T08:48:54.368Z,2.00
2023-05-22T08:51:21.089Z,1.80
2023-05-22T08:53:47.818Z,2.05
2023-05-22T08:56:14.560Z,1.73
2023-05-22T08:58:41.273Z,2.05
2023-05-22T09:01:08.073Z,1.80
2023-05-22T09:03:35.144Z,2.10
2023-05-22T09:06:02.052Z,1.90
2023-05-22T09:08:29.206Z,1.92
2023-05-22T09:10:56.464Z,1.98
2023-05-22T09:13:30.160Z,1.77
2023-05-22T09:16:15.154Z,2.10
2023-05-22T09:18:42.618Z,1.70
2023-05-22T09:23:40.436Z,1.77
2023-05-22T09:26:07.142Z,2.17
2023-05-22T09:28:35.350Z,1.83
2023-05-22T09:31:04.137Z,1.90
2023-05-22T09:33:32.323Z,1.83
2023-05-22T09:35:59.124Z,2.72
2023-05-22T09:38:27.496Z,1.80
2023-05-22T09:40:54.830Z,1.70
2023-05-22T09:43:22.081Z,2.30
2023-05-22T09:45:48.750Z,2.03
2023-05-22T09:48:16.865Z,1.80
2023-05-22T09:50:47.627Z,1.90
2023-05-22T09:53:14.320Z,1.70
2023-05-22T09:55:40.938Z,1.63
2023-05-22T09:58:09.268Z,1.80
2023-05-22T10:00:36.721Z,2.17
2023-05-22T10:03:09.454Z,1.55
2023-05-22T10:05:36.297Z,1.90
2023-05-22T10:08:09.391Z,1.88
2023-05-22T10:10:36.215Z,2.00
2023-05-22T10:13:06.586Z,2.08
2023-05-22T10:15:33.434Z,2.10
2023-05-22T10:18:00.200Z,2.10
2023-05-22T10:20:27.733Z,1.90
2023-05-22T10:22:54.917Z,2.10
2023-05-22T10:25:26.049Z,1.92
2023-05-22T10:27:53.158Z,2.03
2023-05-22T10:30:44.591Z,2.08
2023-05-22T10:33:28.991Z,1.75
2023-05-22T10:35:59.597Z,2.00
2023-05-22T10:38:47.198Z,2.08
2023-05-22T10:41:14.030Z,2.25
2023-05-22T10:43:44.204Z,1.73
2023-05-22T10:46:12.380Z,2.00
2023-05-22T10:48:40.030Z,1.85
2023-05-22T10:51:07.645Z,1.85
2023-05-22T10:53:34.666Z,1.90
2023-05-22T10:56:17.738Z,2.10
2023-05-22T10:58:45.725Z,2.38
2023-05-22T11:01:13.408Z,1.98
2023-05-22T11:04:12.565Z,2.20
2023-05-22T11:07:15.336Z,2.10
2023-05-22T11:09:48.724Z,1.95
2023-05-22T11:12:28.779Z,2.70
2023-05-22T11:15:06.254Z,2.00
2023-05-22T11:17:36.210Z,2.10
2023-05-22T11:20:34.961Z,2.80
2023-05-22T11:23:08.096Z,2.60
2023-05-22T11:25:35.590Z,2.30
2023-05-22T11:28:02.627Z,2.20
2023-05-22T11:30:30.956Z,2.40
2023-05-22T11:33:00.955Z,2.55
2023-05-22T11:35:27.932Z,2.50
2023-05-22T11:37:54.972Z,2.50
2023-05-22T11:40:24.513Z,2.65
2023-05-22T11:42:51.614Z,2.42
2023-05-22T11:45:18.349Z,2.58
2023-05-22T11:47:45.189Z,2.42
2023-05-22T11:50:12.827Z,3.00
2023-05-22T11:52:41.056Z,2.67
2023-05-22T11:55:08.622Z,3.30
2023-05-22T11:57:35.932Z,2.92
2023-05-22T12:00:06.187Z,2.80
2023-05-22T12:02:33.091Z,2.90
2023-05-22T12:04:59.886Z,3.22
2023-05-22T12:07:27.652Z,2.90
2023-05-22T12:09:56.414Z,3.03
2023-05-22T12:12:23.196Z,3.15
2023-05-22T12:14:50.044Z,3.00
2023-05-22T12:17:17.403Z,3.55
2023-05-22T12:19:44.271Z,3.20
2023-05-22T12:22:11.640Z,3.10
2023-05-22T12:24:42.315Z,2.67
2023-05-22T12:27:10.357Z,2.72
2023-05-22T12:29:38.389Z,2.88
2023-05-22T12:32:14.171Z,2.50
2023-05-22T12:34:47.447Z,2.72
2023-05-22T12:37:25.207Z,2.80
2023-05-22T12:40:02.897Z,2.47
2023-05-22T12:42:29.619Z,2.35
2023-05-22T12:44:56.975Z,2.17
2023-05-22T12:47:24.478Z,2.22
2023-05-22T12:49:51.444Z,2.35
2023-05-22T12:52:18.246Z,2.30
2023-05-22T12:54:45.110Z,2.30
2023-05-22T12:57:11.861Z,2.47
2023-05-22T12:59:38.657Z,2.00
2023-05-22T13:02:05.754Z,2.00
2023-05-22T13:04:32.810Z,2.00
2023-05-22T13:06:59.680Z,2.45
2023-05-22T13:09:26.477Z,2.65
2023-05-22T13:11:53.255Z,2.72
2023-05-22T13:14:20.134Z,2.20
2023-05-22T13:16:46.919Z,1.90
2023-05-22T13:19:13.704Z,1.83
2023-05-22T13:21:40.404Z,1.63
2023-05-22T13:24:07.138Z,1.67
2023-05-22T13:26:33.887Z,1.63
2023-05-22T13:29:00.603Z,1.70
2023-05-22T13:31:27.330Z,1.52
2023-05-22T13:33:54.212Z,1.60
2023-05-22T13:36:21.242Z,1.30
2023-05-22T13:38:47.970Z,1.38
2023-05-22T13:41:15.632Z,1.42
2023-05-22T13:43:42.250Z,1.23
2023-05-22T13:46:09.021Z,1.10
2023-05-22T13:48:35.695Z,1.10
2023-05-22T13:51:03.159Z,1.13
2023-05-22T13:53:29.898Z,1.08
2023-05-22T13:55:56.622Z,1.10
2023-05-22T13:58:23.459Z,1.40
2023-05-22T14:00:50.352Z,1.70
2023-05-22T14:03:18.259Z,2.10
2023-05-22T14:05:45.183Z,2.08
2023-05-22T14:08:12.750Z,2.30
2023-05-22T14:10:39.697Z,3.08
2023-05-22T14:13:06.431Z,2.75
2023-05-22T14:15:33.213Z,2.35
2023-05-22T14:18:00.003Z,2.38
2023-05-22T14:20:26.750Z,2.85
2023-05-22T14:22:57.231Z,2.55
2023-05-22T14:25:26.011Z,2.38
2023-05-22T14:27:52.675Z,2.50
2023-05-22T14:30:19.578Z,2.38
2023-05-22T14:32:46.967Z,2.47
2023-05-22T14:35:13.842Z,2.10
2023-05-22T14:37:40.473Z,2.10
2023-05-22T14:40:07.849Z,2.63
2023-05-22T14:42:35.285Z,2.20
2023-05-22T14:45:02.547Z,2.33
2023-05-22T14:47:29.318Z,1.90
2023-05-22T14:50:06.195Z,1.45
2023-05-22T14:52:42.723Z,1.63
2023-05-22T14:55:09.843Z,1.85
2023-05-22T14:57:36.594Z,1.48
2023-05-22T15:00:04.833Z,1.38
2023-05-22T15:02:31.627Z,1.85
2023-05-22T15:04:58.478Z,1.70
2023-05-22T15:07:35.883Z,1.77
2023-05-22T15:10:10.501Z,1.75
2023-05-22T15:12:37.219Z,1.77
2023-05-22T15:15:04.343Z,1.90
2023-05-22T15:17:31.199Z,1.80
2023-05-22T15:19:57.912Z,1.70
2023-05-22T15:22:24.634Z,2.10
2023-05-22T15:25:06.487Z,1.70
2023-05-22T15:27:34.618Z,2.40
2023-05-22T15:30:01.937Z,2.00
2023-05-22T15:32:28.685Z,1.77
2023-05-22T15:34:55.517Z,1.90
2023-05-22T15:37:22.261Z,2.00
2023-05-22T15:39:49.186Z,1.92
2023-05-22T15:42:15.946Z,1.80
2023-05-22T15:44:42.598Z,1.98
2023-05-22T15:47:09.235Z,2.00
2023-05-22T15:49:35.959Z,2.10
2023-05-22T15:52:02.629Z,2.05
2023-05-22T15:54:29.352Z,3.03
2023-05-22T15:56:55.974Z,2.50
2023-05-22T15:59:22.649Z,2.63
2023-05-22T16:01:49.369Z,2.28
2023-05-22T16:04:16.189Z,2.13
2023-05-22T16:06:43.126Z,2.08
2023-05-22T16:09:10.086Z,3.90
2023-05-22T16:11:37.920Z,2.92
2023-05-22T16:14:05.032Z,2.20
2023-05-22T16:16:31.881Z,2.63
2023-05-22T16:18:58.644Z,3.50
2023-05-22T16:21:25.465Z,2.47
2023-05-22T16:23:52.322Z,4.07
2023-05-22T16:26:19.019Z,6.85
2023-05-22T16:28:45.791Z,3.90
2023-05-22T16:31:13.091Z,2.53
2023-05-22T16:33:39.896Z,3.03
2023-05-22T16:36:06.934Z,2.65
2023-05-22T16:38:33.764Z,3.25
2023-05-22T16:41:01.379Z,2.50
2023-05-22T16:43:28.047Z,3.00
2023-05-22T16:45:54.758Z,3.40
2023-05-22T16:48:21.439Z,2.72
2023-05-22T16:50:48.152Z,2.70
2023-05-22T16:53:17.385Z,2.63
2023-05-22T16:55:44.122Z,7.30
2023-05-22T16:58:12.819Z,27.70
2023-05-22T17:00:40.368Z,8.10
2023-05-22T17:03:08.415Z,3.08
2023-05-22T17:05:36.623Z,3.00
2023-05-22T17:08:03.435Z,3.40
2023-05-22T17:10:30.249Z,3.90
2023-05-22T17:12:56.923Z,3.40
2023-05-22T17:15:23.691Z,2.75
2023-05-22T17:17:50.851Z,2.90
2023-05-22T17:20:17.661Z,3.08
2023-05-22T17:22:44.454Z,6.30
2023-05-22T17:25:11.133Z,14.48
2023-05-22T17:27:37.951Z,20.58
2023-05-22T17:30:06.939Z,18.17
2023-05-22T17:32:34.459Z,8.73
2023-05-22T17:35:02.005Z,6.63
2023-05-22T17:37:28.712Z,4.82
2023-05-22T17:39:55.420Z,5.45
2023-05-22T17:42:23.345Z,3.92
2023-05-22T17:44:50.173Z,3.17
2023-05-22T17:47:18.332Z,4.78
2023-05-22T17:49:45.045Z,3.78
2023-05-22T17:52:13.267Z,3.45
2023-05-22T17:54:39.934Z,3.35
2023-05-22T17:57:06.672Z,3.60
2023-05-22T17:59:33.564Z,3.53
2023-05-22T18:02:00.388Z,3.67
2023-05-22T18:04:27.144Z,3.53
2023-05-22T18:06:53.868Z,3.42
2023-05-22T18:09:20.508Z,3.30
2023-05-22T18:11:47.174Z,3.17
2023-05-22T18:14:13.854Z,4.95
2023-05-22T18:16:40.539Z,3.63
2023-05-22T18:19:07.372Z,3.88
2023-05-22T18:21:34.078Z,4.95
2023-05-22T18:24:00.817Z,3.80
2023-05-22T18:26:27.512Z,3.60
2023-05-22T18:28:54.244Z,3.63
2023-05-22T18:31:21.069Z,4.00
2023-05-22T18:33:47.782Z,3.67
2023-05-22T18:36:14.688Z,3.70
2023-05-22T18:38:41.618Z,3.83
2023-05-22T18:41:08.340Z,3.90
2023-05-22T18:43:35.267Z,3.47
2023-05-22T18:46:01.931Z,3.60
2023-05-22T18:48:29.964Z,3.22
2023-05-22T18:50:57.711Z,4.30
2023-05-22T18:53:27.571Z,3.92
2023-05-22T18:55:54.368Z,3.22
2023-05-22T18:58:21.160Z,3.60
2023-05-22T19:00:48.283Z,3.53
2023-05-22T19:03:15.096Z,3.17
2023-05-22T19:05:41.838Z,3.63
2023-05-22T19:08:08.636Z,3.78
2023-05-22T19:10:35.386Z,3.58
2023-05-22T19:13:02.089Z,3.25
2023-05-22T19:15:28.832Z,4.03
2023-05-22T19:17:55.504Z,3.10
2023-05-22T19:20:22.967Z,3.17
2023-05-22T19:22:50.981Z,2.92
2023-05-22T19:25:17.996Z,2.58
2023-05-22T19:27:44.817Z,2.92
2023-05-22T19:30:15.223Z,2.47
2023-05-22T19:32:43.688Z,2.40
2023-05-22T19:35:11.188Z,2.65
2023-05-22T19:37:38.202Z,2.40
2023-05-22T19:40:05.933Z,2.30
2023-05-22T19:42:32.873Z,2.45
2023-05-22T19:44:59.545Z,2.63
2023-05-22T19:47:26.257Z,2.70
2023-05-22T19:49:52.904Z,2.92
2023-05-22T19:52:19.646Z,2.97
2023-05-22T19:54:46.410Z,2.92
2023-05-22T19:57:13.170Z,3.65
2023-05-22T19:59:39.832Z,4.38
2023-05-22T20:02:07.245Z,4.10
2023-05-22T20:04:34.437Z,4.45
2023-05-22T20:07:02.336Z,3.70
2023-05-22T20:09:29.163Z,6.20
2023-05-22T20:11:55.860Z,6.97
2023-05-22T20:14:22.600Z,3.03
2023-05-22T20:16:49.478Z,3.72
2023-05-22T20:19:17.644Z,6.03
2023-05-22T20:21:44.436Z,4.35
2023-05-22T20:24:17.418Z,3.30
2023-05-22T20:26:44.325Z,4.10
2023-05-22T20:29:11.483Z,4.25
2023-05-22T20:31:38.267Z,3.63
2023-05-22T20:34:04.992Z,3.15
2023-05-22T20:36:35.016Z,3.20
2023-05-22T20:39:02.399Z,4.05
2023-05-22T20:41:29.146Z,5.22
2023-05-22T20:43:56.163Z,6.88
2023-05-22T20:46:23.073Z,5.00
2023-05-22T20:48:53.828Z,5.38
2023-05-22T20:51:20.775Z,3.50
2023-05-22T20:53:50.851Z,3.10
2023-05-22T20:56:17.494Z,4.32
2023-05-22T20:58:44.234Z,3.90
2023-05-22T21:01:11.042Z,3.90
2023-05-22T21:03:37.914Z,2.80
2023-05-22T21:06:04.738Z,2.65
2023-05-22T21:08:31.507Z,2.72
2023-05-22T21:10:58.181Z,2.75
2023-05-22T21:13:24.905Z,2.78
2023-05-22T21:15:51.559Z,3.88
2023-05-22T21:18:19.887Z,3.30
2023-05-22T21:20:46.826Z,3.10
2023-05-22T21:23:13.584Z,2.80
2023-05-22T21:25:40.548Z,3.25
2023-05-22T21:28:07.889Z,4.00
2023-05-22T21:30:34.781Z,3.30
2023-05-22T21:33:01.593Z,3.47
2023-05-22T21:35:28.467Z,3.70
2023-05-22T21:37:55.108Z,3.72
2023-05-22T21:40:21.816Z,3.10
2023-05-22T21:42:48.553Z,3.33
2023-05-22T21:45:15.253Z,3.47
2023-05-22T21:47:41.972Z,3.40
2023-05-22T21:50:09.114Z,3.08
2023-05-22T21:52:35.843Z,2.83
2023-05-22T21:55:02.632Z,3.30
2023-05-22T21:57:29.650Z,3.33
2023-05-22T21:59:56.290Z,3.30
2023-05-22T22:02:23.079Z,3.78
2023-05-22T22:04:49.786Z,4.57
2023-05-22T22:07:16.551Z,3.45
2023-05-22T22:09:43.156Z,3.63
2023-05-22T22:12:09.907Z,3.75
2023-05-22T22:14:37.687Z,3.33
2023-05-22T22:17:05.960Z,2.78
2023-05-22T22:19:34.584Z,3.63
2023-05-22T22:22:01.720Z,3.05
2023-05-22T22:24:29.277Z,3.33
2023-05-22T22:26:56.763Z,3.20
2023-05-22T22:29:23.632Z,3.35
2023-05-22T22:31:50.270Z,3.30
2023-05-22T22:34:17.137Z,2.90
2023-05-22T22:36:43.936Z,2.67
2023-05-22T22:39:11.185Z,2.90
2023-05-22T22:41:37.952Z,2.60
2023-05-22T22:44:04.645Z,2.90
2023-05-22T22:46:31.585Z,2.63
2023-05-22T22:49:01.899Z,2.60
2023-05-22T22:51:31.978Z,2.55
2023-05-22T22:53:58.620Z,2.08
2023-05-22T22:56:29.422Z,2.60
2023-05-22T22:58:57.196Z,2.42
2023-05-22T23:01:24.184Z,2.80
2023-05-22T23:03:51.597Z,2.35
2023-05-22T23:06:19.413Z,2.38
2023-05-22T23:08:46.208Z,1.85
2023-05-22T23:11:12.856Z,2.30
2023-05-22T23:13:41.292Z,2.03
2023-05-22T23:16:08.300Z,2.20
2023-05-22T23:18:35.326Z,2.50
2023-05-22T23:21:02.075Z,2.20
2023-05-22T23:23:28.800Z,2.10
2023-05-22T23:25:57.349Z,2.20
2023-05-22T23:28:25.429Z,2.55
2023-05-22T23:30:53.018Z,1.95
2023-05-22T23:33:19.824Z,1.83
2023-05-22T23:35:46.411Z,2.17
2023-05-22T23:38:14.083Z,2.20
2023-05-22T23:40:40.876Z,2.30
2023-05-22T23:43:07.618Z,2.22
2023-05-22T23:45:34.341Z,2.72
2023-05-22T23:48:01.116Z,2.08
2023-05-22T23:50:27.801Z,1.80
2023-05-22T23:52:54.539Z,1.63
2023-05-22T23:55:21.596Z,2.00
2023-05-22T23:57:48.181Z,2.10
